createdAt,value
2022-12-12T00:04:34.071Z,2.23
2022-12-12T00:09:36.607Z,2.23
2022-12-12T00:14:39.611Z,2.26
2022-12-12T00:19:43.371Z,2.29
2022-12-12T00:24:46.003Z,2.25
2022-12-12T00:29:53.500Z,2.26
2022-12-12T00:34:55.974Z,2.20
2022-12-12T00:39:58.514Z,2.31
2022-12-12T00:45:00.977Z,2.28
2022-12-12T00:50:04.309Z,2.34
2022-12-12T00:55:07.335Z,2.36
2022-12-12T01:00:13.591Z,2.37
2022-12-12T01:05:16.748Z,2.35
2022-12-12T01:10:19.379Z,2.27
2022-12-12T01:15:22.081Z,2.31
2022-12-12T01:20:27.850Z,2.36
2022-12-12T01:25:30.456Z,2.33
2022-12-12T01:30:33.095Z,2.35
2022-12-12T01:35:35.979Z,2.37
2022-12-12T01:40:38.556Z,2.27
2022-12-12T01:46:00.100Z,2.41
2022-12-12T01:51:08.441Z,2.42
2022-12-12T01:56:15.272Z,2.38
2022-12-12T02:01:20.496Z,2.47
2022-12-12T02:06:26.683Z,2.50
2022-12-12T02:11:32.519Z,2.57
2022-12-12T02:16:52.346Z,2.49
2022-12-12T02:22:03.503Z,2.52
2022-12-12T02:27:24.294Z,2.51
2022-12-12T02:32:49.385Z,2.51
2022-12-12T02:38:17.071Z,2.56
2022-12-12T02:43:30.377Z,2.54
2022-12-12T02:48:36.007Z,2.49
2022-12-12T02:53:38.759Z,2.42
2022-12-12T02:58:41.316Z,2.51
2022-12-12T03:04:20.733Z,2.63
2022-12-12T03:09:54.931Z,2.58
2022-12-12T03:15:00.398Z,2.67
2022-12-12T03:20:20.120Z,2.66
2022-12-12T03:25:22.767Z,2.65
2022-12-12T03:30:27.788Z,2.67
2022-12-12T03:35:37.511Z,2.64
2022-12-12T03:40:52.112Z,2.69
2022-12-12T03:46:06.445Z,2.71
2022-12-12T03:51:15.671Z,2.67
2022-12-12T03:56:42.498Z,2.65
2022-12-12T04:01:58.185Z,2.67
2022-12-12T04:07:09.048Z,2.66
2022-12-12T04:13:01.159Z,2.66
2022-12-12T04:18:31.132Z,2.59
2022-12-12T04:23:49.011Z,2.61
2022-12-12T04:29:17.312Z,2.62
2022-12-12T04:34:34.099Z,2.46
2022-12-12T04:39:39.439Z,2.63
2022-12-12T04:44:43.967Z,2.55
2022-12-12T04:49:48.999Z,2.55
2022-12-12T04:55:02.108Z,2.67
2022-12-12T05:00:11.416Z,2.60
2022-12-12T05:05:38.754Z,2.63
2022-12-12T05:10:44.911Z,2.62
2022-12-12T05:15:50.880Z,2.64
2022-12-12T05:20:53.891Z,2.70
2022-12-12T05:25:56.577Z,2.73
2022-12-12T05:30:59.220Z,2.67
2022-12-12T05:36:01.779Z,2.65
2022-12-12T05:41:05.476Z,2.68
2022-12-12T05:46:08.101Z,2.65
2022-12-12T05:51:11.331Z,2.64
2022-12-12T05:56:13.839Z,2.64
2022-12-12T06:01:16.358Z,2.64
2022-12-12T06:06:19.029Z,2.66
2022-12-12T06:11:21.648Z,2.62
2022-12-12T06:16:25.085Z,2.58
2022-12-12T06:21:27.681Z,2.68
2022-12-12T06:26:30.852Z,2.74
2022-12-12T06:31:34.080Z,2.73
2022-12-12T06:36:37.584Z,2.66
2022-12-12T06:41:40.854Z,2.68
2022-12-12T06:46:43.480Z,2.77
2022-12-12T06:51:46.487Z,2.80
2022-12-12T06:56:49.532Z,2.83
2022-12-12T07:01:55.935Z,2.86
2022-12-12T07:06:58.649Z,2.85
2022-12-12T07:12:01.287Z,2.89
2022-12-12T07:17:03.829Z,2.83
2022-12-12T07:22:10.087Z,2.75
2022-12-12T07:27:15.744Z,2.79
2022-12-12T07:32:22.591Z,2.92
2022-12-12T07:37:25.179Z,2.91
2022-12-12T07:42:28.707Z,2.89
2022-12-12T07:47:31.431Z,2.99
2022-12-12T07:52:34.013Z,3.03
2022-12-12T07:57:37.763Z,3.06
2022-12-12T08:02:40.472Z,2.93
2022-12-12T08:07:43.460Z,2.99
2022-12-12T08:12:46.311Z,3.15
2022-12-12T08:17:49.086Z,3.10
2022-12-12T08:22:51.719Z,3.08
2022-12-12T08:27:54.336Z,3.17
2022-12-12T08:32:56.910Z,3.21
2022-12-12T08:37:59.847Z,3.22
2022-12-12T08:43:02.551Z,3.31
2022-12-12T08:48:06.988Z,3.25
2022-12-12T08:53:09.644Z,3.17
2022-12-12T08:58:12.140Z,3.18
2022-12-12T09:03:14.857Z,3.26
2022-12-12T09:08:17.436Z,3.19
2022-12-12T09:13:21.016Z,3.18
2022-12-12T09:18:24.004Z,3.26
2022-12-12T09:23:28.560Z,3.21
2022-12-12T09:28:31.084Z,3.18
2022-12-12T09:33:34.054Z,3.02
2022-12-12T09:38:36.954Z,3.07
2022-12-12T09:44:03.501Z,3.13
2022-12-12T09:49:26.223Z,2.97
2022-12-12T09:54:29.303Z,3.12
2022-12-12T09:59:51.626Z,3.14
2022-12-12T10:05:21.980Z,3.17
2022-12-12T10:10:44.303Z,3.15
2022-12-12T10:15:51.571Z,3.05
2022-12-12T10:20:58.097Z,3.10
2022-12-12T10:26:10.850Z,3.16
2022-12-12T10:31:31.677Z,3.19
2022-12-12T10:36:48.303Z,3.16
2022-12-12T10:42:04.507Z,3.07
2022-12-12T10:47:10.833Z,3.14
2022-12-12T10:52:22.613Z,3.13
2022-12-12T10:57:29.115Z,3.11
2022-12-12T11:02:42.406Z,3.20
2022-12-12T11:07:48.664Z,3.17
2022-12-12T11:12:59.711Z,3.06
2022-12-12T11:18:06.108Z,2.94
2022-12-12T11:23:18.606Z,2.98
2022-12-12T11:28:23.855Z,2.94
2022-12-12T11:33:48.808Z,2.95
2022-12-12T11:38:57.337Z,2.97
2022-12-12T11:44:01.465Z,2.95
2022-12-12T11:49:05.513Z,2.79
2022-12-12T11:54:18.710Z,2.81
2022-12-12T11:59:42.756Z,2.88
2022-12-12T12:05:30.354Z,2.93
2022-12-12T12:11:03.766Z,2.85
2022-12-12T12:16:15.454Z,2.83
2022-12-12T12:21:18.007Z,2.91
2022-12-12T12:26:23.620Z,2.96
2022-12-12T12:31:58.880Z,2.88
2022-12-12T12:37:36.679Z,2.92
2022-12-12T12:42:57.868Z,2.80
2022-12-12T12:48:26.218Z,2.83
2022-12-12T12:53:40.419Z,2.69
2022-12-12T12:58:48.078Z,2.80
2022-12-12T13:03:55.024Z,2.87
2022-12-12T13:09:30.874Z,2.78
2022-12-12T13:14:55.360Z,2.72
2022-12-12T13:19:58.782Z,2.75
2022-12-12T13:25:26.886Z,2.74
2022-12-12T13:30:55.669Z,2.73
2022-12-12T13:36:29.536Z,2.56
2022-12-12T13:41:56.099Z,2.62
2022-12-12T13:46:58.735Z,2.51
2022-12-12T13:52:26.438Z,2.51
2022-12-12T13:57:31.317Z,2.53
2022-12-12T14:02:38.737Z,2.58
2022-12-12T14:07:50.976Z,2.51
2022-12-12T14:12:55.141Z,2.50
2022-12-12T14:18:01.138Z,2.58
2022-12-12T14:23:12.891Z,2.59
2022-12-12T14:28:18.629Z,2.51
2022-12-12T14:33:51.321Z,2.38
2022-12-12T14:39:11.306Z,2.20
2022-12-12T14:44:36.471Z,2.28
2022-12-12T14:49:41.455Z,2.33
2022-12-12T14:54:44.060Z,2.37
2022-12-12T14:59:46.760Z,2.43
2022-12-12T15:04:53.289Z,2.42
2022-12-12T15:09:56.478Z,2.20
2022-12-12T15:14:59.543Z,2.37
2022-12-12T15:20:05.894Z,2.41
2022-12-12T15:25:18.707Z,2.42
2022-12-12T15:30:33.559Z,2.45
2022-12-12T15:35:36.072Z,2.39
2022-12-12T15:40:40.178Z,2.47
2022-12-12T15:45:52.455Z,2.39
2022-12-12T15:50:58.961Z,2.29
2022-12-12T15:56:01.481Z,2.26
2022-12-12T16:01:22.468Z,2.19
2022-12-12T16:06:58.279Z,2.24
2022-12-12T16:12:01.568Z,2.31
2022-12-12T16:17:19.462Z,2.29
2022-12-12T16:22:42.579Z,2.33
2022-12-12T16:27:46.627Z,2.27
2022-12-12T16:32:49.498Z,2.32
2022-12-12T16:37:53.650Z,2.41
2022-12-12T16:43:09.363Z,2.39
2022-12-12T16:48:17.225Z,2.38
2022-12-12T16:53:20.767Z,2.37
2022-12-12T16:58:24.543Z,2.28
2022-12-12T17:03:27.537Z,2.32
2022-12-12T17:08:30.335Z,2.38
2022-12-12T17:13:34.092Z,2.22
2022-12-12T17:18:36.734Z,2.42
2022-12-12T17:23:40.324Z,2.44
2022-12-12T17:28:42.934Z,2.44
2022-12-12T17:33:50.773Z,2.43
2022-12-12T17:38:54.318Z,2.41
2022-12-12T17:43:57.287Z,2.36
2022-12-12T17:49:01.951Z,2.35
2022-12-12T17:54:04.656Z,2.33
2022-12-12T17:59:09.015Z,2.38
2022-12-12T18:04:11.910Z,2.28
2022-12-12T18:09:21.046Z,2.28
2022-12-12T18:14:24.356Z,2.33
2022-12-12T18:19:30.543Z,2.33
2022-12-12T18:24:33.310Z,2.37
2022-12-12T18:29:36.110Z,2.25
2022-12-12T18:34:38.794Z,2.24
2022-12-12T18:39:41.528Z,2.19
2022-12-12T18:44:44.094Z,2.12
2022-12-12T18:49:46.674Z,2.12
2022-12-12T18:54:49.443Z,2.13
2022-12-12T18:59:52.067Z,1.99
2022-12-12T19:04:54.609Z,2.13
2022-12-12T19:09:57.542Z,2.07
2022-12-12T19:15:16.283Z,2.04
2022-12-12T19:20:20.314Z,1.87
2022-12-12T19:25:22.967Z,1.93
2022-12-12T19:30:28.178Z,1.69
2022-12-12T19:35:30.758Z,1.80
2022-12-12T19:40:33.323Z,1.74
2022-12-12T19:45:35.909Z,1.77
2022-12-12T19:50:38.501Z,1.63
2022-12-12T19:55:47.105Z,1.79
2022-12-12T20:00:50.697Z,1.76
2022-12-12T20:06:00.179Z,1.84
2022-12-12T20:11:05.317Z,1.85
2022-12-12T20:16:12.939Z,1.77
2022-12-12T20:21:43.607Z,1.77
2022-12-12T20:26:41.072Z,1.86
2022-12-12T20:31:48.686Z,1.95
2022-12-12T20:36:51.490Z,1.88
2022-12-12T20:41:54.868Z,1.80
2022-12-12T20:46:59.915Z,1.81
2022-12-12T20:52:02.455Z,1.84
2022-12-12T20:57:04.978Z,1.85
2022-12-12T21:02:08.099Z,1.71
2022-12-12T21:07:10.783Z,1.84
2022-12-12T21:12:13.388Z,1.93
2022-12-12T21:17:16.839Z,1.88
2022-12-12T21:22:19.325Z,1.89
2022-12-12T21:27:21.870Z,1.88
2022-12-12T21:32:24.319Z,1.90
2022-12-12T21:37:26.903Z,1.67
2022-12-12T21:42:29.559Z,1.96
2022-12-12T21:47:32.163Z,1.79
2022-12-12T21:52:34.981Z,1.77
2022-12-12T21:57:37.526Z,1.79
2022-12-12T22:02:40.018Z,1.76
2022-12-12T22:07:42.664Z,1.77
2022-12-12T22:12:57.025Z,1.84
2022-12-12T22:18:00.369Z,1.86
2022-12-12T22:23:03.116Z,1.83
2022-12-12T22:28:05.624Z,1.85
2022-12-12T22:33:08.179Z,1.81
2022-12-12T22:38:11.073Z,1.73
2022-12-12T22:43:13.554Z,1.86
2022-12-12T22:48:18.068Z,1.86
2022-12-12T22:53:20.696Z,1.91
2022-12-12T22:58:23.247Z,1.74
2022-12-12T23:03:25.821Z,1.73
2022-12-12T23:08:28.471Z,1.73
2022-12-12T23:13:31.147Z,1.71
2022-12-12T23:18:35.250Z,1.66
2022-12-12T23:23:38.810Z,1.64
2022-12-12T23:28:42.355Z,1.52
2022-12-12T23:33:46.014Z,1.56
2022-12-12T23:38:48.795Z,1.61
2022-12-12T23:43:51.663Z,1.52
2022-12-12T23:49:00.189Z,1.49
2022-12-12T23:54:05.865Z,1.41
2022-12-12T23:59:11.609Z,1.63
